sensor_id;sensor_type;location;lat;lon;timestamp;pressure;altitude;pressure_sealevel;temperature;humidity
74613;BME280;63119;51.788;8.824;2024-01-30T00:01:00;101233.88;;;4.65;83.74
74613;BME280;63119;51.788;8.824;2024-01-30T00:03:25;101236.34;;;4.71;82.21
74613;BME280;63119;51.788;8.824;2024-01-30T00:05:50;101226.63;;;4.74;82.99
74613;BME280;63119;51.788;8.824;2024-01-30T00:08:15;101224.50;;;4.55;84.21
74613;BME280;63119;51.788;8.824;2024-01-30T00:10:41;101232.22;;;4.61;83.58
74613;BME280;63119;51.788;8.824;2024-01-30T00:13:06;101238.31;;;4.61;83.62
74613;BME280;63119;51.788;8.824;2024-01-30T00:15:32;101233.16;;;4.58;83.76
74613;BME280;63119;51.788;8.824;2024-01-30T00:17:57;101238.28;;;4.63;83.93
74613;BME280;63119;51.788;8.824;2024-01-30T00:20:22;101223.41;;;4.63;84.32
74613;BME280;63119;51.788;8.824;2024-01-30T00:22:48;101226.09;;;4.62;84.32
74613;BME280;63119;51.788;8.824;2024-01-30T00:25:13;101232.03;;;4.31;87.17
74613;BME280;63119;51.788;8.824;2024-01-30T00:27:39;101232.94;;;4.30;87.04
74613;BME280;63119;51.788;8.824;2024-01-30T00:30:05;101236.50;;;4.26;86.84
74613;BME280;63119;51.788;8.824;2024-01-30T00:32:30;101227.81;;;4.24;87.45
74613;BME280;63119;51.788;8.824;2024-01-30T00:34:55;101232.06;;;4.30;86.65
74613;BME280;63119;51.788;8.824;2024-01-30T00:37:20;101226.53;;;4.44;85.55
74613;BME280;63119;51.788;8.824;2024-01-30T00:39:46;101228.03;;;4.14;87.01
74613;BME280;63119;51.788;8.824;2024-01-30T00:42:11;101228.09;;;4.12;87.08
74613;BME280;63119;51.788;8.824;2024-01-30T00:44:36;101230.44;;;4.24;85.89
74613;BME280;63119;51.788;8.824;2024-01-30T00:47:05;101221.78;;;4.21;86.20
74613;BME280;63119;51.788;8.824;2024-01-30T00:49:30;101227.09;;;4.18;85.99
74613;BME280;63119;51.788;8.824;2024-01-30T00:51:55;101220.78;;;4.26;85.66
74613;BME280;63119;51.788;8.824;2024-01-30T00:54:21;101228.56;;;4.31;85.84
74613;BME280;63119;51.788;8.824;2024-01-30T00:56:46;101229.28;;;4.37;85.27
74613;BME280;63119;51.788;8.824;2024-01-30T00:59:11;101227.44;;;4.41;84.08
74613;BME280;63119;51.788;8.824;2024-01-30T01:01:36;101224.94;;;4.36;84.09
74613;BME280;63119;51.788;8.824;2024-01-30T01:04:01;101230.03;;;4.41;83.76
74613;BME280;63119;51.788;8.824;2024-01-30T01:06:27;101235.94;;;4.51;83.92
74613;BME280;63119;51.788;8.824;2024-01-30T01:08:52;101233.38;;;4.49;83.17
74613;BME280;63119;51.788;8.824;2024-01-30T01:11:17;101231.72;;;4.45;82.38
74613;BME280;63119;51.788;8.824;2024-01-30T01:13:43;101230.03;;;4.41;82.70
74613;BME280;63119;51.788;8.824;2024-01-30T01:16:08;101229.97;;;4.46;83.93
74613;BME280;63119;51.788;8.824;2024-01-30T01:18:33;101225.53;;;4.48;84.43
74613;BME280;63119;51.788;8.824;2024-01-30T01:20:59;101221.13;;;4.50;83.53
74613;BME280;63119;51.788;8.824;2024-01-30T01:23:24;101221.06;;;4.53;83.43
74613;BME280;63119;51.788;8.824;2024-01-30T01:25:49;101225.28;;;4.58;83.38
74613;BME280;63119;51.788;8.824;2024-01-30T01:28:14;101222.03;;;4.49;83.42
74613;BME280;63119;51.788;8.824;2024-01-30T01:30:39;101219.63;;;4.38;84.95
74613;BME280;63119;51.788;8.824;2024-01-30T01:33:05;101217.88;;;4.38;84.45
74613;BME280;63119;51.788;8.824;2024-01-30T01:35:31;101222.31;;;4.36;84.92
74613;BME280;63119;51.788;8.824;2024-01-30T01:37:57;101214.41;;;4.38;86.34
74613;BME280;63119;51.788;8.824;2024-01-30T01:40:25;101214.59;;;4.29;86.41
74613;BME280;63119;51.788;8.824;2024-01-30T01:42:51;101215.69;;;4.20;86.04
74613;BME280;63119;51.788;8.824;2024-01-30T01:45:18;101215.16;;;4.05;88.05
74613;BME280;63119;51.788;8.824;2024-01-30T01:47:43;101219.34;;;4.13;87.19
74613;BME280;63119;51.788;8.824;2024-01-30T01:50:12;101215.94;;;4.08;86.64
74613;BME280;63119;51.788;8.824;2024-01-30T01:52:39;101220.97;;;4.17;87.13
74613;BME280;63119;51.788;8.824;2024-01-30T01:55:05;101219.34;;;4.13;87.46
74613;BME280;63119;51.788;8.824;2024-01-30T01:57:31;101214.69;;;4.26;86.00
74613;BME280;63119;51.788;8.824;2024-01-30T01:59:56;101214.81;;;4.20;86.14
74613;BME280;63119;51.788;8.824;2024-01-30T02:02:23;101215.69;;;4.20;85.38
74613;BME280;63119;51.788;8.824;2024-01-30T02:04:49;101211.28;;;4.22;87.00
74613;BME280;63119;51.788;8.824;2024-01-30T02:07:15;101214.88;;;4.17;87.51
74613;BME280;63119;51.788;8.824;2024-01-30T02:09:40;101210.22;;;4.29;85.37
74613;BME280;63119;51.788;8.824;2024-01-30T02:12:06;101214.69;;;4.26;87.20
74613;BME280;63119;51.788;8.824;2024-01-30T02:14:31;101208.53;;;4.28;88.09
74613;BME280;63119;51.788;8.824;2024-01-30T02:16:56;101203.56;;;4.16;88.47
74613;BME280;63119;51.788;8.824;2024-01-30T02:19:21;101206.78;;;4.27;88.84
74613;BME280;63119;51.788;8.824;2024-01-30T02:21:47;101198.59;;;4.41;86.68
74613;BME280;63119;51.788;8.824;2024-01-30T02:24:13;101191.00;;;4.30;88.66
74613;BME280;63119;51.788;8.824;2024-01-30T02:26:38;101196.41;;;4.23;88.96
74613;BME280;63119;51.788;8.824;2024-01-30T02:29:03;101189.47;;;4.20;88.21
74613;BME280;63119;51.788;8.824;2024-01-30T02:31:28;101193.78;;;4.23;87.96
74613;BME280;63119;51.788;8.824;2024-01-30T02:33:53;101184.09;;;4.26;87.87
74613;BME280;63119;51.788;8.824;2024-01-30T02:36:19;101189.34;;;4.26;87.48
74613;BME280;63119;51.788;8.824;2024-01-30T02:38:44;101179.81;;;4.24;86.45
74613;BME280;63119;51.788;8.824;2024-01-30T02:41:11;101184.09;;;4.26;85.55
74613;BME280;63119;51.788;8.824;2024-01-30T02:43:36;101182.34;;;4.27;84.84
74613;BME280;63119;51.788;8.824;2024-01-30T02:46:02;101178.84;;;4.28;84.81
74613;BME280;63119;51.788;8.824;2024-01-30T02:48:27;101176.44;;;4.19;84.99
74613;BME280;63119;51.788;8.824;2024-01-30T02:50:52;101168.59;;;4.17;84.89
74613;BME280;63119;51.788;8.824;2024-01-30T02:53:17;101175.72;;;4.12;87.88
74613;BME280;63119;51.788;8.824;2024-01-30T02:55:42;101174.16;;;4.04;87.60
74613;BME280;63119;51.788;8.824;2024-01-30T02:58:08;101168.88;;;4.05;88.28
74613;BME280;63119;51.788;8.824;2024-01-30T03:00:34;101164.38;;;4.12;86.78
74613;BME280;63119;51.788;8.824;2024-01-30T03:02:59;101164.41;;;4.10;87.36
74613;BME280;63119;51.788;8.824;2024-01-30T03:05:24;101160.22;;;4.02;87.64
74613;BME280;63119;51.788;8.824;2024-01-30T03:07:50;101156.97;;;3.92;88.11
74613;BME280;63119;51.788;8.824;2024-01-30T03:10:15;101156.19;;;3.89;88.80
74613;BME280;63119;51.788;8.824;2024-01-30T03:12:40;101151.84;;;3.86;90.58
74613;BME280;63119;51.788;8.824;2024-01-30T03:15:06;101149.06;;;3.95;89.64
74613;BME280;63119;51.788;8.824;2024-01-30T03:17:31;101146.00;;;4.13;87.53
74613;BME280;63119;51.788;8.824;2024-01-30T03:19:57;101151.41;;;4.07;88.43
74613;BME280;63119;51.788;8.824;2024-01-30T03:22:22;101144.63;;;3.97;87.98
74613;BME280;63119;51.788;8.824;2024-01-30T03:24:47;101145.34;;;4.04;87.73
74613;BME280;63119;51.788;8.824;2024-01-30T03:27:12;101143.88;;;3.92;88.28
74613;BME280;63119;51.788;8.824;2024-01-30T03:29:38;101143.00;;;3.92;88.44
74613;BME280;63119;51.788;8.824;2024-01-30T03:32:03;101144.06;;;3.83;89.42
74613;BME280;63119;51.788;8.824;2024-01-30T03:34:29;101136.25;;;3.80;90.01
74613;BME280;63119;51.788;8.824;2024-01-30T03:36:54;101139.72;;;3.82;89.50
74613;BME280;63119;51.788;8.824;2024-01-30T03:39:19;101137.25;;;3.76;89.70
74613;BME280;63119;51.788;8.824;2024-01-30T03:41:45;101137.88;;;3.87;89.71
74613;BME280;63119;51.788;8.824;2024-01-30T03:44:10;101140.25;;;3.98;89.17
74613;BME280;63119;51.788;8.824;2024-01-30T03:46:36;101138.81;;;3.83;89.98
74613;BME280;63119;51.788;8.824;2024-01-30T03:49:01;101133.13;;;4.04;88.75
74613;BME280;63119;51.788;8.824;2024-01-30T03:51:26;101134.00;;;4.03;88.10
74613;BME280;63119;51.788;8.824;2024-01-30T03:53:51;101134.16;;;3.97;89.08
74613;BME280;63119;51.788;8.824;2024-01-30T03:56:16;101128.91;;;3.97;87.63
74613;BME280;63119;51.788;8.824;2024-01-30T03:58:42;101129.00;;;3.93;88.14
74613;BME280;63119;51.788;8.824;2024-01-30T04:01:07;101125.63;;;3.89;88.03
74613;BME280;63119;51.788;8.824;2024-01-30T04:03:37;101123.28;;;3.75;89.01
74613;BME280;63119;51.788;8.824;2024-01-30T04:06:03;101121.75;;;3.67;90.45
74613;BME280;63119;51.788;8.824;2024-01-30T04:08:28;101119.06;;;3.68;90.62
74613;BME280;63119;51.788;8.824;2024-01-30T04:10:53;101110.22;;;3.74;89.34
74613;BME280;63119;51.788;8.824;2024-01-30T04:13:18;101111.47;;;3.58;90.83
74613;BME280;63119;51.788;8.824;2024-01-30T04:15:44;101112.09;;;3.69;90.45
74613;BME280;63119;51.788;8.824;2024-01-30T04:18:09;101113.69;;;3.76;89.77
74613;BME280;63119;51.788;8.824;2024-01-30T04:20:35;101114.56;;;3.76;90.37
74613;BME280;63119;51.788;8.824;2024-01-30T04:23:00;101113.75;;;3.73;91.36
74613;BME280;63119;51.788;8.824;2024-01-30T04:25:25;101108.47;;;3.74;91.37
74613;BME280;63119;51.788;8.824;2024-01-30T04:27:50;101117.41;;;3.66;91.47
74613;BME280;63119;51.788;8.824;2024-01-30T04:30:16;101117.38;;;3.67;90.68
74613;BME280;63119;51.788;8.824;2024-01-30T04:32:41;101115.72;;;3.62;91.66
74613;BME280;63119;51.788;8.824;2024-01-30T04:35:07;101101.69;;;3.66;92.12
74613;BME280;63119;51.788;8.824;2024-01-30T04:37:32;101108.34;;;3.41;93.72
74613;BME280;63119;51.788;8.824;2024-01-30T04:39:57;101108.94;;;3.55;92.93
74613;BME280;63119;51.788;8.824;2024-01-30T04:42:23;101108.72;;;3.64;92.29
74613;BME280;63119;51.788;8.824;2024-01-30T04:44:48;101106.78;;;3.73;91.32
74613;BME280;63119;51.788;8.824;2024-01-30T04:47:14;101106.59;;;3.81;91.10
74613;BME280;63119;51.788;8.824;2024-01-30T04:49:39;101107.44;;;3.81;89.56
74613;BME280;63119;51.788;8.824;2024-01-30T04:52:05;101110.16;;;3.77;89.89
74613;BME280;63119;51.788;8.824;2024-01-30T04:54:31;101111.81;;;3.81;90.06
74613;BME280;63119;51.788;8.824;2024-01-30T04:56:56;101112.75;;;3.78;90.20
74613;BME280;63119;51.788;8.824;2024-01-30T04:59:21;101108.47;;;3.76;90.51
74613;BME280;63119;51.788;8.824;2024-01-30T05:01:46;101111.06;;;3.76;90.05
74613;BME280;63119;51.788;8.824;2024-01-30T05:04:12;101109.19;;;3.82;89.23
74613;BME280;63119;51.788;8.824;2024-01-30T05:06:37;101106.72;;;3.75;88.73
74613;BME280;63119;51.788;8.824;2024-01-30T05:09:03;101120.69;;;3.75;88.33
74613;BME280;63119;51.788;8.824;2024-01-30T05:11:31;101117.38;;;3.67;89.81
74613;BME280;63119;51.788;8.824;2024-01-30T05:14:01;101112.28;;;3.60;90.54
74613;BME280;63119;51.788;8.824;2024-01-30T05:16:26;101113.09;;;3.62;91.13
74613;BME280;63119;51.788;8.824;2024-01-30T05:18:52;101121.16;;;3.53;91.92
74613;BME280;63119;51.788;8.824;2024-01-30T05:21:17;101114.19;;;3.53;92.58
74613;BME280;63119;51.788;8.824;2024-01-30T05:23:42;101113.09;;;3.63;90.48
74613;BME280;63119;51.788;8.824;2024-01-30T05:26:08;101122.13;;;3.49;91.54
74613;BME280;63119;51.788;8.824;2024-01-30T05:28:33;101113.03;;;3.66;91.73
74613;BME280;63119;51.788;8.824;2024-01-30T05:30:58;101112.16;;;3.66;89.83
74613;BME280;63119;51.788;8.824;2024-01-30T05:33:24;101111.34;;;3.64;90.98
74613;BME280;63119;51.788;8.824;2024-01-30T05:35:49;101107.88;;;3.62;90.32
74613;BME280;63119;51.788;8.824;2024-01-30T05:38:15;101104.34;;;3.64;90.25
74613;BME280;63119;51.788;8.824;2024-01-30T05:40:41;101108.72;;;3.64;89.92
74613;BME280;63119;51.788;8.824;2024-01-30T05:43:06;101109.00;;;3.52;91.09
74613;BME280;63119;51.788;8.824;2024-01-30T05:45:33;101100.22;;;3.53;91.73
74613;BME280;63119;51.788;8.824;2024-01-30T05:47:59;101097.47;;;3.60;90.73
74613;BME280;63119;51.788;8.824;2024-01-30T05:50:24;101110.63;;;3.56;91.31
74613;BME280;63119;51.788;8.824;2024-01-30T05:52:50;101097.66;;;3.50;91.90
74613;BME280;63119;51.788;8.824;2024-01-30T05:55:15;101097.59;;;3.53;92.44
74613;BME280;63119;51.788;8.824;2024-01-30T05:57:41;101106.38;;;3.50;92.22
74613;BME280;63119;51.788;8.824;2024-01-30T06:00:07;101096.66;;;3.57;90.38
74613;BME280;63119;51.788;8.824;2024-01-30T06:02:32;101100.22;;;3.54;91.69
74613;BME280;63119;51.788;8.824;2024-01-30T06:04:58;101096.13;;;3.41;92.38
74613;BME280;63119;51.788;8.824;2024-01-30T06:07:23;101093.44;;;3.44;92.30
74613;BME280;63119;51.788;8.824;2024-01-30T06:09:48;101098.66;;;3.46;93.53
74613;BME280;63119;51.788;8.824;2024-01-30T06:12:14;101093.16;;;3.58;91.67
74613;BME280;63119;51.788;8.824;2024-01-30T06:14:39;101099.34;;;3.54;90.52
74613;BME280;63119;51.788;8.824;2024-01-30T06:17:04;101093.28;;;3.52;91.27
74613;BME280;63119;51.788;8.824;2024-01-30T06:19:30;101100.97;;;3.59;89.64
74613;BME280;63119;51.788;8.824;2024-01-30T06:21:55;101108.13;;;3.50;89.69
74613;BME280;63119;51.788;8.824;2024-01-30T06:24:20;101101.97;;;3.54;89.63
74613;BME280;63119;51.788;8.824;2024-01-30T06:26:45;101096.72;;;3.54;88.99
74613;BME280;63119;51.788;8.824;2024-01-30T06:29:11;101090.59;;;3.55;89.30
74613;BME280;63119;51.788;8.824;2024-01-30T06:31:40;101090.69;;;3.50;89.94
74613;BME280;63119;51.788;8.824;2024-01-30T06:34:06;101087.78;;;3.64;88.55
74613;BME280;63119;51.788;8.824;2024-01-30T06:36:31;101091.34;;;3.60;90.81
74613;BME280;63119;51.788;8.824;2024-01-30T06:38:56;101085.19;;;3.62;88.09
74613;BME280;63119;51.788;8.824;2024-01-30T06:41:22;101094.84;;;3.59;89.65
74613;BME280;63119;51.788;8.824;2024-01-30T06:43:47;101095.66;;;3.62;89.49
74613;BME280;63119;51.788;8.824;2024-01-30T06:46:13;101087.84;;;3.61;88.34
74613;BME280;63119;51.788;8.824;2024-01-30T06:48:38;101087.94;;;3.58;88.68
74613;BME280;63119;51.788;8.824;2024-01-30T06:51:05;101082.88;;;3.49;90.10
74613;BME280;63119;51.788;8.824;2024-01-30T06:53:30;101088.00;;;3.53;91.17
74613;BME280;63119;51.788;8.824;2024-01-30T06:55:56;101096.91;;;3.46;91.62
74613;BME280;63119;51.788;8.824;2024-01-30T06:58:21;101088.38;;;3.37;92.67
74613;BME280;63119;51.788;8.824;2024-01-30T07:00:46;101092.75;;;3.36;92.45
74613;BME280;63119;51.788;8.824;2024-01-30T07:03:11;101093.81;;;3.26;92.90
74613;BME280;63119;51.788;8.824;2024-01-30T07:05:37;101093.50;;;3.41;92.92
74613;BME280;63119;51.788;8.824;2024-01-30T07:08:02;101089.13;;;3.43;92.42
74613;BME280;63119;51.788;8.824;2024-01-30T07:10:27;101089.88;;;3.48;92.68
74613;BME280;63119;51.788;8.824;2024-01-30T07:12:53;101083.72;;;3.51;92.32
74613;BME280;63119;51.788;8.824;2024-01-30T07:15:18;101084.47;;;3.56;91.01
74613;BME280;63119;51.788;8.824;2024-01-30T07:17:45;101081.13;;;3.49;92.45
74613;BME280;63119;51.788;8.824;2024-01-30T07:20:11;101081.88;;;3.54;93.36
74613;BME280;63119;51.788;8.824;2024-01-30T07:22:36;101084.19;;;3.68;91.15
74613;BME280;63119;51.788;8.824;2024-01-30T07:25:01;101084.31;;;3.62;92.57
74613;BME280;63119;51.788;8.824;2024-01-30T07:27:26;101078.06;;;3.70;91.07
74613;BME280;63119;51.788;8.824;2024-01-30T07:29:52;101080.47;;;3.79;90.27
74613;BME280;63119;51.788;8.824;2024-01-30T07:32:17;101086.44;;;3.84;89.60
74613;BME280;63119;51.788;8.824;2024-01-30T07:34:43;101082.00;;;3.88;89.48
74613;BME280;63119;51.788;8.824;2024-01-30T07:37:09;101081.47;;;3.72;91.50
74613;BME280;63119;51.788;8.824;2024-01-30T07:39:34;101083.00;;;3.82;91.49
74613;BME280;63119;51.788;8.824;2024-01-30T07:42:00;101076.75;;;3.88;89.66
74613;BME280;63119;51.788;8.824;2024-01-30T07:44:25;101079.34;;;3.90;90.63
74613;BME280;63119;51.788;8.824;2024-01-30T07:46:50;101085.50;;;3.87;91.59
74613;BME280;63119;51.788;8.824;2024-01-30T07:49:16;101077.63;;;3.89;92.06
74613;BME280;63119;51.788;8.824;2024-01-30T07:51:41;101081.94;;;3.90;91.70
74613;BME280;63119;51.788;8.824;2024-01-30T07:54:06;101077.56;;;3.90;92.20
74613;BME280;63119;51.788;8.824;2024-01-30T07:56:31;101076.53;;;3.97;92.15
74613;BME280;63119;51.788;8.824;2024-01-30T07:58:57;101088.31;;;4.16;91.05
74613;BME280;63119;51.788;8.824;2024-01-30T08:01:22;101086.00;;;4.03;93.30
74613;BME280;63119;51.788;8.824;2024-01-30T08:03:47;101089.22;;;4.14;92.96
74613;BME280;63119;51.788;8.824;2024-01-30T08:06:12;101091.75;;;4.18;91.73
74613;BME280;63119;51.788;8.824;2024-01-30T08:08:37;101091.31;;;4.35;91.28
74613;BME280;63119;51.788;8.824;2024-01-30T08:11:03;101105.22;;;4.38;90.66
74613;BME280;63119;51.788;8.824;2024-01-30T08:13:28;101099.50;;;4.57;91.31
74613;BME280;63119;51.788;8.824;2024-01-30T08:15:53;101099.25;;;4.66;90.92
74613;BME280;63119;51.788;8.824;2024-01-30T08:18:19;101105.53;;;4.60;89.91
74613;BME280;63119;51.788;8.824;2024-01-30T08:20:44;101095.34;;;4.50;92.39
74613;BME280;63119;51.788;8.824;2024-01-30T08:23:09;101093.44;;;4.55;91.73
74613;BME280;63119;51.788;8.824;2024-01-30T08:25:35;101097.72;;;4.59;91.47
74613;BME280;63119;51.788;8.824;2024-01-30T08:28:01;101092.47;;;4.59;92.32
74613;BME280;63119;51.788;8.824;2024-01-30T08:30:27;101095.59;;;4.73;91.36
74613;BME280;63119;51.788;8.824;2024-01-30T08:32:52;101087.41;;;4.85;91.64
74613;BME280;63119;51.788;8.824;2024-01-30T08:35:17;101086.34;;;4.92;91.99
74613;BME280;63119;51.788;8.824;2024-01-30T08:37:43;101076.53;;;4.98;91.06
74613;BME280;63119;51.788;8.824;2024-01-30T08:40:09;101076.41;;;5.03;91.91
74613;BME280;63119;51.788;8.824;2024-01-30T08:42:35;101079.88;;;5.34;90.73
74613;BME280;63119;51.788;8.824;2024-01-30T08:45:00;101083.72;;;5.52;89.71
74613;BME280;63119;51.788;8.824;2024-01-30T08:47:25;101078.22;;;5.61;89.47
74613;BME280;63119;51.788;8.824;2024-01-30T08:49:51;101079.69;;;5.70;89.11
74613;BME280;63119;51.788;8.824;2024-01-30T08:52:17;101074.97;;;5.81;89.15
74613;BME280;63119;51.788;8.824;2024-01-30T08:54:42;101081.59;;;5.94;89.71
74613;BME280;63119;51.788;8.824;2024-01-30T08:57:07;101084.50;;;6.13;89.01
74613;BME280;63119;51.788;8.824;2024-01-30T08:59:33;101092.84;;;6.25;88.72
74613;BME280;63119;51.788;8.824;2024-01-30T09:01:58;101087.19;;;6.37;88.23
74613;BME280;63119;51.788;8.824;2024-01-30T09:04:24;101091.47;;;6.40;88.36
74613;BME280;63119;51.788;8.824;2024-01-30T09:06:49;101087.69;;;6.48;88.90
74613;BME280;63119;51.788;8.824;2024-01-30T09:09:15;101103.44;;;6.75;88.82
74613;BME280;63119;51.788;8.824;2024-01-30T09:11:40;101111.50;;;6.95;89.83
74613;BME280;63119;51.788;8.824;2024-01-30T09:14:06;101109.13;;;7.12;88.83
74613;BME280;63119;51.788;8.824;2024-01-30T09:16:31;101115.44;;;7.31;89.18
74613;BME280;63119;51.788;8.824;2024-01-30T09:18:56;101112.94;;;7.51;88.74
74613;BME280;63119;51.788;8.824;2024-01-30T09:21:22;101102.19;;;7.79;88.00
74613;BME280;63119;51.788;8.824;2024-01-30T09:23:47;101109.88;;;8.07;87.94
74613;BME280;63119;51.788;8.824;2024-01-30T09:26:12;101098.94;;;8.17;86.71
74613;BME280;63119;51.788;8.824;2024-01-30T09:28:38;101101.03;;;8.31;85.05
74613;BME280;63119;51.788;8.824;2024-01-30T09:31:03;101112.44;;;8.32;85.50
74613;BME280;63119;51.788;8.824;2024-01-30T09:33:29;101105.19;;;8.37;85.68
74613;BME280;63119;51.788;8.824;2024-01-30T09:35:54;101109.44;;;8.41;85.78
74613;BME280;63119;51.788;8.824;2024-01-30T09:38:19;101110.91;;;8.48;85.41
74613;BME280;63119;51.788;8.824;2024-01-30T09:40:50;101102.91;;;8.49;86.34
74613;BME280;63119;51.788;8.824;2024-01-30T09:43:20;101100.63;;;8.62;86.25
74613;BME280;63119;51.788;8.824;2024-01-30T09:45:48;101101.88;;;8.73;87.12
74613;BME280;63119;51.788;8.824;2024-01-30T09:48:15;101102.88;;;8.91;86.17
74613;BME280;63119;51.788;8.824;2024-01-30T09:50:40;101103.88;;;9.09;85.96
74613;BME280;63119;51.788;8.824;2024-01-30T09:53:07;101109.69;;;9.36;85.72
74613;BME280;63119;51.788;8.824;2024-01-30T09:55:33;101103.88;;;9.48;84.63
74613;BME280;63119;51.788;8.824;2024-01-30T09:57:59;101105.13;;;9.58;84.34
74613;BME280;63119;51.788;8.824;2024-01-30T10:00:25;101098.16;;;9.75;83.49
74613;BME280;63119;51.788;8.824;2024-01-30T10:02:52;101093.13;;;9.88;82.83
74613;BME280;63119;51.788;8.824;2024-01-30T10:05:19;101095.13;;;10.02;82.41
74613;BME280;63119;51.788;8.824;2024-01-30T10:07:54;101098.94;;;10.15;82.55
74613;BME280;63119;51.788;8.824;2024-01-30T10:10:22;101096.78;;;10.23;81.44
74613;BME280;63119;51.788;8.824;2024-01-30T10:12:49;101088.09;;;10.38;81.38
74613;BME280;63119;51.788;8.824;2024-01-30T10:15:14;101099.78;;;10.51;80.76
74613;BME280;63119;51.788;8.824;2024-01-30T10:17:39;101097.44;;;10.62;80.69
74613;BME280;63119;51.788;8.824;2024-01-30T10:20:05;101097.69;;;10.75;79.95
74613;BME280;63119;51.788;8.824;2024-01-30T10:22:30;101095.97;;;10.74;79.71
74613;BME280;63119;51.788;8.824;2024-01-30T10:24:55;101098.69;;;10.72;80.12
74613;BME280;63119;51.788;8.824;2024-01-30T10:27:26;101094.88;;;10.78;79.45
74613;BME280;63119;51.788;8.824;2024-01-30T10:29:52;101089.66;;;10.76;78.84
74613;BME280;63119;51.788;8.824;2024-01-30T10:32:17;101081.53;;;10.79;78.72
74613;BME280;63119;51.788;8.824;2024-01-30T10:34:43;101088.72;;;10.77;79.14
74613;BME280;63119;51.788;8.824;2024-01-30T10:37:10;101084.19;;;10.79;79.06
74613;BME280;63119;51.788;8.824;2024-01-30T10:39:43;101085.91;;;10.80;78.95
74613;BME280;63119;51.788;8.824;2024-01-30T10:42:16;101087.53;;;10.83;79.11
74613;BME280;63119;51.788;8.824;2024-01-30T10:44:56;101084.03;;;10.82;79.48
74613;BME280;63119;51.788;8.824;2024-01-30T10:47:26;101089.81;;;10.90;78.78
74613;BME280;63119;51.788;8.824;2024-01-30T10:49:52;101095.13;;;10.90;78.35
74613;BME280;63119;51.788;8.824;2024-01-30T10:52:18;101093.94;;;10.96;79.27
74613;BME280;63119;51.788;8.824;2024-01-30T10:54:44;101093.78;;;10.99;78.11
74613;BME280;63119;51.788;8.824;2024-01-30T10:57:11;101099.34;;;11.10;77.95
74613;BME280;63119;51.788;8.824;2024-01-30T10:59:38;101093.75;;;11.16;78.05
74613;BME280;63119;51.788;8.824;2024-01-30T11:02:04;101097.19;;;11.34;77.70
74613;BME280;63119;51.788;8.824;2024-01-30T11:04:54;101098.47;;;11.60;77.60
74613;BME280;63119;51.788;8.824;2024-01-30T11:07:25;101093.41;;;11.88;75.80
74613;BME280;63119;51.788;8.824;2024-01-30T11:09:51;101076.97;;;11.97;73.73
74613;BME280;63119;51.788;8.824;2024-01-30T11:12:22;101082.44;;;12.10;73.04
74613;BME280;63119;51.788;8.824;2024-01-30T11:14:48;101069.56;;;12.33;72.70
74613;BME280;63119;51.788;8.824;2024-01-30T11:17:13;101070.13;;;12.38;73.18
74613;BME280;63119;51.788;8.824;2024-01-30T11:19:38;101074.66;;;12.52;72.70
74613;BME280;63119;51.788;8.824;2024-01-30T11:22:06;101071.00;;;12.69;72.22
74613;BME280;63119;51.788;8.824;2024-01-30T11:24:39;101066.34;;;12.72;71.30
74613;BME280;63119;51.788;8.824;2024-01-30T11:27:08;101068.16;;;12.72;70.87
74613;BME280;63119;51.788;8.824;2024-01-30T11:29:34;101061.78;;;12.60;71.37
74613;BME280;63119;51.788;8.824;2024-01-30T11:32:00;101076.44;;;12.81;71.24
74613;BME280;63119;51.788;8.824;2024-01-30T11:34:25;101072.84;;;12.82;71.11
74613;BME280;63119;51.788;8.824;2024-01-30T11:36:52;101074.28;;;12.88;71.21
74613;BME280;63119;51.788;8.824;2024-01-30T11:39:24;101068.09;;;12.87;71.34
74613;BME280;63119;51.788;8.824;2024-01-30T11:41:51;101070.19;;;12.96;71.18
74613;BME280;63119;51.788;8.824;2024-01-30T11:44:17;101062.97;;;12.98;71.51
74613;BME280;63119;51.788;8.824;2024-01-30T11:46:43;101069.84;;;13.02;71.35
74613;BME280;63119;51.788;8.824;2024-01-30T11:49:08;101070.72;;;13.17;71.28
74613;BME280;63119;51.788;8.824;2024-01-30T11:51:34;101077.09;;;13.29;71.27
74613;BME280;63119;51.788;8.824;2024-01-30T11:53:59;101074.44;;;13.43;70.68
74613;BME280;63119;51.788;8.824;2024-01-30T11:56:24;101079.47;;;13.61;70.20
74613;BME280;63119;51.788;8.824;2024-01-30T11:58:50;101077.63;;;13.76;69.56
74613;BME280;63119;51.788;8.824;2024-01-30T12:01:17;101072.66;;;13.84;68.58
74613;BME280;63119;51.788;8.824;2024-01-30T12:03:42;101075.53;;;13.81;67.12
74613;BME280;63119;51.788;8.824;2024-01-30T12:06:08;101074.38;;;13.85;67.23
74613;BME280;63119;51.788;8.824;2024-01-30T12:08:33;101067.97;;;14.02;67.06
74613;BME280;63119;51.788;8.824;2024-01-30T12:10:58;101065.63;;;14.24;66.25
74613;BME280;63119;51.788;8.824;2024-01-30T12:13:25;101070.34;;;14.06;65.62
74613;BME280;63119;51.788;8.824;2024-01-30T12:15:51;101066.50;;;14.10;66.08
74613;BME280;63119;51.788;8.824;2024-01-30T12:18:18;101059.56;;;13.81;66.49
74613;BME280;63119;51.788;8.824;2024-01-30T12:20:44;101060.06;;;13.74;67.23
74613;BME280;63119;51.788;8.824;2024-01-30T12:23:11;101069.97;;;13.57;67.44
74613;BME280;63119;51.788;8.824;2024-01-30T12:25:37;101073.28;;;13.61;67.59
74613;BME280;63119;51.788;8.824;2024-01-30T12:28:03;101067.00;;;13.76;68.11
74613;BME280;63119;51.788;8.824;2024-01-30T12:30:29;101064.81;;;13.83;68.23
74613;BME280;63119;51.788;8.824;2024-01-30T12:32:54;101063.69;;;13.73;67.82
74613;BME280;63119;51.788;8.824;2024-01-30T12:35:20;101067.94;;;13.75;67.34
74613;BME280;63119;51.788;8.824;2024-01-30T12:37:47;101068.06;;;13.74;67.80
74613;BME280;63119;51.788;8.824;2024-01-30T12:40:15;101064.63;;;13.72;67.85
74613;BME280;63119;51.788;8.824;2024-01-30T12:42:41;101073.25;;;13.75;67.67
74613;BME280;63119;51.788;8.824;2024-01-30T12:45:08;101077.34;;;13.81;67.87
74613;BME280;63119;51.788;8.824;2024-01-30T12:47:33;101078.88;;;13.71;67.77
74613;BME280;63119;51.788;8.824;2024-01-30T12:49:59;101084.28;;;13.69;68.17